createdAt,value
2023-04-25T08:27:13.811Z,53.6
2023-04-25T08:33:07.072Z,53.6
2023-04-25T08:39:12.170Z,53.6
2023-04-25T08:45:06.148Z,53.5
2023-04-25T08:51:00.168Z,53.4
2023-04-25T08:56:54.778Z,53.4
2023-04-25T09:02:47.642Z,53.4
2023-04-25T09:08:45.451Z,53.3
2023-04-25T09:14:22.053Z,53.3
2023-04-25T09:20:12.641Z,53.3
2023-04-25T09:26:16.871Z,53.2
2023-04-25T09:32:09.835Z,53.1
2023-04-25T09:38:03.302Z,53.1
2023-04-25T09:43:56.152Z,53.1
2023-04-25T09:49:47.796Z,53
2023-04-25T09:55:39.854Z,52.9
2023-04-25T10:01:32.376Z,52.9
2023-04-25T10:07:25.567Z,52.9
2023-04-25T10:13:16.945Z,52.8
2023-04-25T10:19:10.254Z,52.8
2023-04-25T10:24:45.948Z,52.8
2023-04-25T10:30:36.832Z,52.7
2023-04-25T10:36:30.457Z,52.6
2023-04-25T10:42:21.154Z,52.6
2023-04-25T10:48:13.774Z,52.5
2023-04-25T10:54:14.148Z,52.5
2023-04-25T11:00:07.978Z,52.4
2023-04-25T11:06:30.384Z,52.7
2023-04-25T11:12:37.024Z,52.7
2023-04-25T11:18:46.865Z,52.7
2023-04-25T11:24:38.477Z,52.8
2023-04-25T11:30:32.039Z,53
2023-04-25T11:36:25.001Z,53
2023-04-25T11:42:25.697Z,53
2023-04-25T11:48:20.631Z,52.9
2023-04-25T11:54:17.158Z,52.9
2023-04-25T12:00:08.681Z,52.9
2023-04-25T12:06:28.056Z,52.9
2023-04-25T12:12:19.128Z,52.9
2023-04-25T12:17:40.330Z,52.8
2023-04-25T12:23:38.590Z,52.8
2023-04-25T12:29:34.664Z,52.8
2023-04-25T12:35:30.513Z,52.8
2023-04-25T12:41:10.524Z,52.7
2023-04-25T12:47:02.541Z,52.7
2023-04-25T12:53:04.848Z,52.6
2023-04-25T12:58:59.992Z,52.6
2023-04-25T13:04:53.852Z,52.6
2023-04-25T13:10:46.142Z,52.6
2023-04-25T13:16:44.097Z,52.5
2023-04-25T13:22:35.792Z,52.4
2023-04-25T13:28:12.644Z,52.4
2023-04-25T13:45:04.281Z,52.3
2023-04-25T13:51:30.117Z,52.3
2023-04-25T13:57:06.594Z,52.3
2023-04-25T14:03:00.596Z,52.3
2023-04-25T14:08:53.675Z,52.2
2023-04-25T14:14:44.149Z,52.1
2023-04-25T14:20:20.937Z,52.1
2023-04-25T14:26:13.820Z,52.1
2023-04-25T14:32:04.204Z,52.1
2023-04-25T14:37:40.802Z,52
2023-04-25T14:53:44.214Z,51.9
2023-04-25T14:59:05.782Z,51.9
2023-04-25T15:04:27.851Z,51.8
2023-04-25T15:10:08.808Z,51.8
2023-04-25T15:15:50.106Z,51.8
2023-04-25T15:21:25.849Z,51.8
2023-04-25T15:27:02.131Z,51.7
2023-04-25T15:32:39.697Z,51.7
2023-04-25T15:38:32.533Z,51.6
2023-04-25T15:44:24.529Z,51.6
2023-04-25T15:50:19.967Z,51.6
2023-04-25T15:55:41.772Z,51.5
2023-04-25T16:01:19.724Z,51.5
2023-04-25T16:07:15.692Z,51.4
2023-04-25T16:12:51.072Z,51.4
2023-04-25T16:18:27.726Z,51.4
2023-04-25T16:24:06.079Z,51.4
2023-04-25T16:29:41.555Z,51.3
2023-04-25T16:35:05.271Z,51.3
2023-04-25T16:40:42.392Z,51.3
2023-04-25T16:46:18.668Z,51.2
2023-04-25T16:51:39.919Z,51.2
2023-04-25T16:57:16.595Z,51.1
2023-04-25T17:02:40.235Z,51.1
2023-04-25T17:08:33.373Z,51.1
2023-04-25T17:14:20.132Z,51.1
2023-04-25T17:19:57.157Z,51
2023-04-25T17:25:03.123Z,50.9
2023-04-25T17:30:24.477Z,50.9
2023-04-25T17:35:14.374Z,50.9
2023-04-25T17:40:50.359Z,50.9
2023-04-25T17:46:12.767Z,50.9
2023-04-25T17:51:18.482Z,50.8
2023-04-25T17:56:42.321Z,50.8
2023-04-25T18:01:49.464Z,50.8
2023-04-25T18:07:27.747Z,50.7
2023-04-25T18:12:48.642Z,50.7
2023-04-25T18:18:25.346Z,50.6
2023-04-25T18:24:17.738Z,50.6
2023-04-25T18:29:46.472Z,50.6
2023-04-25T18:35:08.905Z,50.5
2023-04-25T18:42:07.576Z,50.5
2023-04-25T18:47:47.712Z,50.4
2023-04-25T18:53:10.374Z,50.4
2023-04-25T18:59:03.317Z,50.4
2023-04-25T19:04:43.773Z,50.4
2023-04-25T19:10:21.820Z,50.3
2023-04-25T19:16:09.609Z,50.3
2023-04-25T19:22:03.177Z,50.3
2023-04-25T19:28:01.452Z,50.2
2023-04-25T19:33:39.366Z,50.2
2023-04-25T19:39:17.606Z,50.1
2023-04-25T19:44:56.820Z,50.1
2023-04-25T19:50:20.496Z,50.1
2023-04-25T19:55:58.211Z,50.1
2023-04-25T20:01:36.883Z,50
2023-04-25T20:07:16.404Z,50
2023-04-25T20:12:55.076Z,49.9
2023-04-25T20:18:33.214Z,49.9
2023-04-25T20:24:09.861Z,49.9
2023-04-25T20:29:47.984Z,49.8
2023-04-25T20:35:43.091Z,49.8
2023-04-25T20:41:34.729Z,49.8
2023-04-25T20:47:10.661Z,49.7
2023-04-25T20:53:02.455Z,49.7
2023-04-25T20:58:55.029Z,49.6
2023-04-25T21:04:32.728Z,49.6
2023-04-25T21:10:08.912Z,49.6
2023-04-25T21:16:00.975Z,49.5
2023-04-25T21:21:53.681Z,49.5
2023-04-25T21:27:29.848Z,49.5
2023-04-25T21:33:22.220Z,49.4
2023-04-25T21:38:58.557Z,49.4
2023-04-25T21:44:34.813Z,49.4
2023-04-25T21:50:41.238Z,49.3
2023-04-25T21:56:17.482Z,49.3
2023-04-25T22:02:09.469Z,49.3
2023-04-25T22:07:47.346Z,49.2
2023-04-25T22:13:20.722Z,49.2
2023-04-25T22:18:42.025Z,49.1
2023-04-25T22:24:18.490Z,49.1
2023-04-25T22:30:09.317Z,49.1
2023-04-25T22:36:00.821Z,49.1
2023-04-25T22:41:52.166Z,49
2023-04-25T22:47:43.765Z,49
